createdAt,value
2022-12-05T00:01:25.763Z,15.57
2022-12-05T00:06:30.308Z,15.57
2022-12-05T00:11:36.705Z,15.87
2022-12-05T00:16:41.244Z,10.70
2022-12-05T00:21:44.949Z,9.47
2022-12-05T00:26:49.861Z,9.40
2022-12-05T00:31:53.491Z,9.80
2022-12-05T00:36:56.792Z,11.13
2022-12-05T00:42:01.696Z,12.83
2022-12-05T00:47:05.096Z,11.73
2022-12-05T00:52:08.436Z,12.20
2022-12-05T00:57:13.476Z,16.03
2022-12-05T01:02:16.794Z,12.90
2022-12-05T01:07:20.224Z,13.47
2022-12-05T01:12:25.123Z,14.17
2022-12-05T01:17:28.758Z,12.43
2022-12-05T01:22:32.375Z,10.33
2022-12-05T01:27:37.083Z,10.73
2022-12-05T01:32:40.673Z,12.40
2022-12-05T01:37:43.871Z,12.37
2022-12-05T01:42:48.540Z,12.10
2022-12-05T01:47:51.954Z,13.50
2022-12-05T01:52:55.628Z,14.63
2022-12-05T01:58:01.784Z,12.87
2022-12-05T02:03:08.175Z,12.83
2022-12-05T02:08:13.135Z,14.73
2022-12-05T02:13:26.849Z,15.27
2022-12-05T02:18:35.996Z,15.33
2022-12-05T02:23:49.410Z,14.23
2022-12-05T02:29:10.845Z,14.23
2022-12-05T02:34:18.151Z,14.07
2022-12-05T02:39:25.787Z,15.20
2022-12-05T02:44:32.627Z,12.53
2022-12-05T02:49:38.593Z,14.23
2022-12-05T02:54:43.651Z,14.87
2022-12-05T02:59:47.190Z,11.77
2022-12-05T03:04:51.967Z,11.83
2022-12-05T03:09:57.882Z,11.73
2022-12-05T03:15:04.028Z,11.07
2022-12-05T03:20:13.070Z,12.57
2022-12-05T03:25:16.616Z,11.30
2022-12-05T03:30:20.692Z,11.50
2022-12-05T03:35:29.367Z,11.47
2022-12-05T03:40:34.397Z,10.47
2022-12-05T03:45:40.940Z,7.83
2022-12-05T03:50:47.983Z,10.27
2022-12-05T03:55:55.415Z,8.63
2022-12-05T04:01:00.531Z,9.27
2022-12-05T04:06:05.772Z,9.33
2022-12-05T04:11:12.434Z,9.27
2022-12-05T04:16:35.939Z,8.23
2022-12-05T04:21:42.543Z,8.77
2022-12-05T04:26:48.328Z,9.13
2022-12-05T04:31:57.751Z,13.07
2022-12-05T04:37:04.078Z,16.10
2022-12-05T04:42:09.171Z,9.30
2022-12-05T04:47:15.230Z,9.43
2022-12-05T04:52:20.564Z,8.03
2022-12-05T04:57:26.930Z,8.47
2022-12-05T05:02:34.075Z,9.33
2022-12-05T05:07:45.529Z,11.73
2022-12-05T05:12:49.111Z,8.47
2022-12-05T05:17:52.674Z,8.73
2022-12-05T05:22:58.305Z,8.80
2022-12-05T05:28:01.719Z,8.20
2022-12-05T05:33:04.932Z,8.57
2022-12-05T05:38:10.176Z,10.70
2022-12-05T05:43:13.956Z,8.63
2022-12-05T05:48:17.184Z,7.93
2022-12-05T05:53:22.002Z,8.70
2022-12-05T05:58:25.353Z,8.00
2022-12-05T06:03:29.025Z,9.17
2022-12-05T06:08:34.032Z,8.60
2022-12-05T06:13:37.523Z,9.60
2022-12-05T06:18:40.808Z,9.67
2022-12-05T06:23:45.549Z,8.07
2022-12-05T06:28:49.255Z,7.90
2022-12-05T06:33:52.534Z,9.73
2022-12-05T06:38:57.134Z,9.50
2022-12-05T06:44:02.560Z,8.87
2022-12-05T06:49:06.744Z,8.57
2022-12-05T06:54:12.515Z,11.70
2022-12-05T06:59:15.878Z,8.67
2022-12-05T07:04:20.786Z,8.60
2022-12-05T07:09:45.850Z,11.10
2022-12-05T07:14:50.097Z,9.23
2022-12-05T07:19:54.494Z,8.60
2022-12-05T07:24:59.335Z,8.23
2022-12-05T07:30:02.856Z,9.13
2022-12-05T07:35:06.452Z,7.87
2022-12-05T07:40:12.011Z,12.77
2022-12-05T07:45:15.526Z,8.67
2022-12-05T07:50:18.820Z,8.03
2022-12-05T07:55:23.410Z,8.17
2022-12-05T08:00:26.889Z,8.03
2022-12-05T08:05:30.636Z,8.20
2022-12-05T08:10:36.549Z,7.77
2022-12-05T08:15:39.747Z,7.33
2022-12-05T08:20:44.160Z,8.43
2022-12-05T08:25:48.792Z,8.40
2022-12-05T08:30:52.422Z,7.27
2022-12-05T08:35:55.647Z,8.40
2022-12-05T08:41:03.163Z,7.37
2022-12-05T08:46:06.667Z,8.37
2022-12-05T08:51:11.147Z,8.47
2022-12-05T08:56:15.815Z,7.97
2022-12-05T09:01:20.101Z,6.87
2022-12-05T09:06:24.692Z,8.13
2022-12-05T09:11:30.534Z,7.23
2022-12-05T09:16:38.207Z,7.03
2022-12-05T09:21:43.041Z,7.37
2022-12-05T09:26:47.743Z,8.73
2022-12-05T09:31:52.270Z,10.67
2022-12-05T09:37:10.221Z,10.33
2022-12-05T09:42:30.574Z,6.87
2022-12-05T09:47:36.778Z,6.93
2022-12-05T09:52:42.479Z,7.70
2022-12-05T09:57:51.180Z,7.23
2022-12-05T10:02:57.620Z,7.73
2022-12-05T10:08:04.124Z,7.13
2022-12-05T10:13:17.816Z,7.33
2022-12-05T10:18:28.228Z,7.23
2022-12-05T10:29:00.364Z,7.40
2022-12-05T10:34:05.954Z,7.17
2022-12-05T10:39:11.753Z,7.50
2022-12-05T10:44:16.521Z,7.13
2022-12-05T10:49:20.707Z,8.13
2022-12-05T10:54:26.006Z,8.43
2022-12-05T10:59:45.796Z,10.63
2022-12-05T11:04:49.807Z,7.03
2022-12-05T11:09:53.271Z,6.73
2022-12-05T11:14:59.608Z,8.07
2022-12-05T11:20:03.084Z,5.00
2022-12-05T11:25:21.387Z,8.20
2022-12-05T11:30:29.099Z,6.30
2022-12-05T11:35:32.622Z,10.03
2022-12-05T11:40:39.086Z,8.67
2022-12-05T11:45:49.363Z,7.43
2022-12-05T11:51:02.019Z,5.57
2022-12-05T11:56:08.399Z,5.63
2022-12-05T12:01:21.332Z,4.60
2022-12-05T12:06:28.507Z,6.13
2022-12-05T12:11:35.675Z,8.23
2022-12-05T12:16:44.427Z,6.87
2022-12-05T12:21:53.264Z,9.17
2022-12-05T12:27:02.731Z,6.73
2022-12-05T12:32:16.045Z,5.63
2022-12-05T12:37:26.792Z,7.17
2022-12-05T12:42:32.893Z,5.60
2022-12-05T12:47:43.897Z,5.80
2022-12-05T12:52:56.334Z,6.63
2022-12-05T12:58:06.944Z,5.13
2022-12-05T13:03:14.562Z,8.20
2022-12-05T13:08:21.234Z,6.13
2022-12-05T13:13:27.073Z,6.50
2022-12-05T13:18:31.819Z,5.77
2022-12-05T13:23:37.527Z,6.93
2022-12-05T13:28:42.275Z,7.47
2022-12-05T13:33:48.017Z,8.07
2022-12-05T13:39:14.449Z,6.40
2022-12-05T13:44:29.767Z,6.20
2022-12-05T13:49:36.869Z,6.47
2022-12-05T13:54:44.678Z,8.50
2022-12-05T14:00:06.327Z,8.07
2022-12-05T14:05:30.375Z,7.40
2022-12-05T14:10:48.476Z,6.03
2022-12-05T14:15:53.841Z,6.67
2022-12-05T14:21:03.252Z,7.47
2022-12-05T14:26:15.308Z,6.33
2022-12-05T14:31:27.392Z,6.53
2022-12-05T14:36:31.824Z,5.10
2022-12-05T14:41:36.231Z,5.63
2022-12-05T14:46:46.203Z,6.87
2022-12-05T14:51:57.230Z,5.90
2022-12-05T14:57:04.923Z,6.03
2022-12-05T15:02:17.500Z,7.17
2022-12-05T15:07:21.834Z,10.80
2022-12-05T15:12:27.942Z,12.17
2022-12-05T15:17:37.497Z,7.63
2022-12-05T15:22:40.692Z,7.40
2022-12-05T15:27:52.639Z,7.37
2022-12-05T15:32:59.708Z,9.77
2022-12-05T15:38:05.841Z,10.37
2022-12-05T15:43:29.390Z,7.53
2022-12-05T15:48:34.339Z,7.33
2022-12-05T15:53:40.848Z,6.87
2022-12-05T15:58:45.303Z,6.63
2022-12-05T16:03:51.432Z,13.83
2022-12-05T16:08:55.000Z,11.80
2022-12-05T16:13:59.102Z,8.97
2022-12-05T16:19:06.118Z,7.30
2022-12-05T16:24:15.797Z,8.27
2022-12-05T16:29:28.345Z,8.00
2022-12-05T16:34:34.596Z,10.33
2022-12-05T16:39:37.927Z,9.07
2022-12-05T16:45:02.209Z,8.47
2022-12-05T16:50:20.634Z,7.67
2022-12-05T16:55:25.111Z,8.17
2022-12-05T17:00:28.470Z,8.10
2022-12-05T17:05:31.692Z,9.00
2022-12-05T17:10:36.375Z,8.97
2022-12-05T17:15:39.718Z,9.13
2022-12-05T17:20:43.915Z,11.03
2022-12-05T17:25:49.907Z,12.27
2022-12-05T17:30:53.128Z,15.33
2022-12-05T17:35:56.404Z,11.43
2022-12-05T17:41:05.452Z,10.40
2022-12-05T17:46:10.604Z,20.53
2022-12-05T17:51:14.705Z,10.90
2022-12-05T17:56:19.436Z,10.20
2022-12-05T18:01:22.743Z,10.77
2022-12-05T18:06:26.783Z,10.57
2022-12-05T18:11:31.614Z,14.27
2022-12-05T18:16:34.857Z,12.43
2022-12-05T18:21:39.032Z,12.30
2022-12-05T18:26:43.939Z,13.30
2022-12-05T18:31:48.492Z,13.23
2022-12-05T18:36:52.076Z,13.23
2022-12-05T18:41:57.548Z,12.33
2022-12-05T18:47:00.883Z,12.43
2022-12-05T18:52:04.228Z,15.73
2022-12-05T18:57:09.040Z,17.47
2022-12-05T19:02:12.208Z,13.20
2022-12-05T19:07:16.475Z,14.87
2022-12-05T19:12:21.063Z,12.30
2022-12-05T19:17:24.881Z,16.10
2022-12-05T19:22:28.639Z,16.40
2022-12-05T19:27:33.303Z,17.50
2022-12-05T19:32:40.021Z,18.60
2022-12-05T19:37:44.211Z,23.13
2022-12-05T19:42:48.919Z,14.57
2022-12-05T19:47:52.324Z,16.77
2022-12-05T19:52:55.711Z,16.30
2022-12-05T19:58:01.071Z,15.57
2022-12-05T20:03:07.802Z,17.97
2022-12-05T20:08:15.551Z,17.73
2022-12-05T20:13:45.434Z,34.40
2022-12-05T20:18:44.088Z,16.27
2022-12-05T20:23:48.051Z,13.20
2022-12-05T20:28:53.165Z,13.23
2022-12-05T20:33:57.022Z,19.47
2022-12-05T20:39:01.439Z,23.63
2022-12-05T20:44:07.929Z,17.33
2022-12-05T20:49:12.648Z,20.33
2022-12-05T20:54:18.547Z,18.23
2022-12-05T20:59:23.663Z,23.40
2022-12-05T21:04:27.145Z,18.10
2022-12-05T21:09:31.953Z,19.80
2022-12-05T21:14:36.781Z,17.80
2022-12-05T21:19:40.200Z,18.90
2022-12-05T21:24:43.630Z,18.03
2022-12-05T21:29:48.621Z,17.50
2022-12-05T21:34:52.148Z,22.17
2022-12-05T21:39:55.798Z,15.70
2022-12-05T21:45:01.101Z,17.17
2022-12-05T21:50:04.565Z,15.60
2022-12-05T21:55:08.500Z,15.53
2022-12-05T22:00:14.306Z,15.63
2022-12-05T22:05:18.123Z,16.23
2022-12-05T22:10:21.804Z,15.10
2022-12-05T22:15:26.682Z,18.47
2022-12-05T22:20:30.007Z,18.07
2022-12-05T22:25:33.616Z,14.57
2022-12-05T22:30:38.282Z,13.93
2022-12-05T22:35:41.688Z,11.43
2022-12-05T22:40:45.339Z,12.90
2022-12-05T22:45:50.543Z,12.40
2022-12-05T22:50:55.446Z,12.00
2022-12-05T22:56:03.046Z,10.87
2022-12-05T23:01:11.894Z,9.97
2022-12-05T23:06:16.191Z,8.67
2022-12-05T23:11:20.792Z,8.47
2022-12-05T23:16:26.488Z,11.07
2022-12-05T23:21:30.783Z,11.17
2022-12-05T23:26:36.282Z,9.83
2022-12-05T23:31:41.888Z,8.93
2022-12-05T23:36:45.347Z,8.23
2022-12-05T23:41:49.003Z,7.20
2022-12-05T23:46:53.645Z,7.83
2022-12-05T23:51:56.936Z,8.10
2022-12-05T23:57:00.566Z,6.47
